sensor_id;sensor_type;location;lat;lon;timestamp;pressure;altitude;pressure_sealevel;temperature;humidity
79230;BME280;68663;49.122;17.544;2024-02-21T00:01:17;100200.75;;;23.61;48.68
79230;BME280;68663;49.122;17.544;2024-02-21T00:03:43;100200.34;;;23.63;48.91
79230;BME280;68663;49.122;17.544;2024-02-21T00:06:10;100187.03;;;23.63;48.56
79230;BME280;68663;49.122;17.544;2024-02-21T00:08:35;100195.09;;;23.61;49.03
79230;BME280;68663;49.122;17.544;2024-02-21T00:11:00;100193.47;;;23.53;49.27
79230;BME280;68663;49.122;17.544;2024-02-21T00:13:26;100188.22;;;23.51;48.63
79230;BME280;68663;49.122;17.544;2024-02-21T00:15:51;100178.16;;;23.54;48.75
79230;BME280;68663;49.122;17.544;2024-02-21T00:18:16;100180.97;;;23.54;48.58
79230;BME280;68663;49.122;17.544;2024-02-21T00:20:42;100178.16;;;23.54;48.61
79230;BME280;68663;49.122;17.544;2024-02-21T00:23:07;100172.50;;;23.54;48.84
79230;BME280;68663;49.122;17.544;2024-02-21T00:25:32;100180.19;;;23.57;48.63
79230;BME280;68663;49.122;17.544;2024-02-21T00:27:58;100181.38;;;23.60;48.58
79230;BME280;68663;49.122;17.544;2024-02-21T00:30:23;100174.94;;;23.59;48.65
79230;BME280;68663;49.122;17.544;2024-02-21T00:32:48;100176.53;;;23.60;48.22
79230;BME280;68663;49.122;17.544;2024-02-21T00:35:14;100169.28;;;23.59;48.57
79230;BME280;68663;49.122;17.544;2024-02-21T00:37:39;100173.72;;;23.60;48.72
79230;BME280;68663;49.122;17.544;2024-02-21T00:40:05;100167.66;;;23.62;48.61
79230;BME280;68663;49.122;17.544;2024-02-21T00:42:31;100162.03;;;23.62;48.53
79230;BME280;68663;49.122;17.544;2024-02-21T00:44:57;100157.19;;;23.62;48.37
79230;BME280;68663;49.122;17.544;2024-02-21T00:47:23;100155.16;;;23.63;48.63
79230;BME280;68663;49.122;17.544;2024-02-21T00:49:48;100160.41;;;23.64;48.28
79230;BME280;68663;49.122;17.544;2024-02-21T00:52:14;100155.56;;;23.65;48.35
79230;BME280;68663;49.122;17.544;2024-02-21T00:54:39;100150.72;;;23.65;48.50
79230;BME280;68663;49.122;17.544;2024-02-21T00:57:04;100153.13;;;23.67;48.41
79230;BME280;68663;49.122;17.544;2024-02-21T00:59:30;100146.28;;;23.68;48.43
79230;BME280;68663;49.122;17.544;2024-02-21T01:01:55;100151.50;;;23.69;48.23
79230;BME280;68663;49.122;17.544;2024-02-21T01:04:20;100149.09;;;23.68;48.16
79230;BME280;68663;49.122;17.544;2024-02-21T01:06:46;100150.72;;;23.65;48.07
79230;BME280;68663;49.122;17.544;2024-02-21T01:09:11;100155.97;;;23.63;48.26
79230;BME280;68663;49.122;17.544;2024-02-21T01:11:36;100149.53;;;23.59;48.13
79230;BME280;68663;49.122;17.544;2024-02-21T01:14:02;100151.97;;;23.57;48.30
79230;BME280;68663;49.122;17.544;2024-02-21T01:16:27;100149.13;;;23.54;48.37
79230;BME280;68663;49.122;17.544;2024-02-21T01:18:53;100150.75;;;23.55;48.49
79230;BME280;68663;49.122;17.544;2024-02-21T01:21:18;100151.97;;;23.57;48.34
79230;BME280;68663;49.122;17.544;2024-02-21T01:23:43;100151.56;;;23.55;48.35
79230;BME280;68663;49.122;17.544;2024-02-21T01:26:09;100150.75;;;23.55;48.40
79230;BME280;68663;49.122;17.544;2024-02-21T01:28:38;100145.50;;;23.57;48.42
79230;BME280;68663;49.122;17.544;2024-02-21T01:31:03;100142.66;;;23.60;48.20
79230;BME280;68663;49.122;17.544;2024-02-21T01:33:29;100138.63;;;23.61;48.42
79230;BME280;68663;49.122;17.544;2024-02-21T01:36:00;100141.84;;;23.63;47.89
79230;BME280;68663;49.122;17.544;2024-02-21T01:38:25;100137.81;;;23.64;48.06
79230;BME280;68663;49.122;17.544;2024-02-21T01:40:51;100131.38;;;23.64;48.00
79230;BME280;68663;49.122;17.544;2024-02-21T01:43:18;100139.03;;;23.63;48.02
79230;BME280;68663;49.122;17.544;2024-02-21T01:45:49;100131.38;;;23.64;47.77
79230;BME280;68663;49.122;17.544;2024-02-21T01:48:17;100133.78;;;23.65;48.04
79230;BME280;68663;49.122;17.544;2024-02-21T01:50:46;100122.50;;;23.65;47.82
79230;BME280;68663;49.122;17.544;2024-02-21T01:53:30;100116.84;;;23.65;47.99
79230;BME280;68663;49.122;17.544;2024-02-21T01:55:56;100124.91;;;23.67;47.87
79230;BME280;68663;49.122;17.544;2024-02-21T01:58:21;100116.03;;;23.68;47.94
79230;BME280;68663;49.122;17.544;2024-02-21T02:00:48;100117.63;;;23.69;47.87
79230;BME280;68663;49.122;17.544;2024-02-21T02:03:14;100109.97;;;23.70;47.89
79230;BME280;68663;49.122;17.544;2024-02-21T02:05:46;100118.44;;;23.70;47.68
79230;BME280;68663;49.122;17.544;2024-02-21T02:08:15;100107.16;;;23.66;47.79
79230;BME280;68663;49.122;17.544;2024-02-21T02:10:41;100115.22;;;23.64;47.60
79230;BME280;68663;49.122;17.544;2024-02-21T02:13:06;100110.41;;;23.61;47.87
79230;BME280;68663;49.122;17.544;2024-02-21T02:18:04;100109.22;;;23.55;47.90
79230;BME280;68663;49.122;17.544;2024-02-21T02:20:30;100109.22;;;23.55;48.08
79230;BME280;68663;49.122;17.544;2024-02-21T02:22:55;100106.41;;;23.55;48.15
79230;BME280;68663;49.122;17.544;2024-02-21T02:25:21;100108.78;;;23.53;47.97
79230;BME280;68663;49.122;17.544;2024-02-21T02:27:47;100091.84;;;23.53;47.80
79230;BME280;68663;49.122;17.544;2024-02-21T02:30:12;100093.47;;;23.54;47.96
79230;BME280;68663;49.122;17.544;2024-02-21T02:32:38;100097.53;;;23.57;48.07
79230;BME280;68663;49.122;17.544;2024-02-21T02:35:03;100095.09;;;23.59;47.91
79230;BME280;68663;49.122;17.544;2024-02-21T02:37:29;100090.25;;;23.59;48.12
79230;BME280;68663;49.122;17.544;2024-02-21T02:39:54;100090.25;;;23.59;47.85
79230;BME280;68663;49.122;17.544;2024-02-21T02:42:20;100091.47;;;23.58;47.79
79230;BME280;68663;49.122;17.544;2024-02-21T02:44:45;100090.25;;;23.59;47.68
79230;BME280;68663;49.122;17.544;2024-02-21T02:47:11;100080.16;;;23.58;48.07
79230;BME280;68663;49.122;17.544;2024-02-21T02:49:36;100085.00;;;23.61;47.78
79230;BME280;68663;49.122;17.544;2024-02-21T02:52:01;100076.53;;;23.61;47.95
79230;BME280;68663;49.122;17.544;2024-02-21T02:54:27;100083.78;;;23.62;47.86
79230;BME280;68663;49.122;17.544;2024-02-21T02:56:52;100076.13;;;23.63;47.76
79230;BME280;68663;49.122;17.544;2024-02-21T02:59:18;100072.88;;;23.64;47.56
79230;BME280;68663;49.122;17.544;2024-02-21T03:01:44;100075.31;;;23.66;47.77
79230;BME280;68663;49.122;17.544;2024-02-21T03:04:09;100072.47;;;23.66;47.67
79230;BME280;68663;49.122;17.544;2024-02-21T03:06:35;100074.50;;;23.65;47.75
79230;BME280;68663;49.122;17.544;2024-02-21T03:09:00;100068.88;;;23.58;47.92
79230;BME280;68663;49.122;17.544;2024-02-21T03:11:25;100068.06;;;23.58;47.77
79230;BME280;68663;49.122;17.544;2024-02-21T03:13:55;100072.53;;;23.48;47.81
79230;BME280;68663;49.122;17.544;2024-02-21T03:16:21;100069.31;;;23.46;48.01
79230;BME280;68663;49.122;17.544;2024-02-21T03:18:47;100070.50;;;23.48;47.79
79230;BME280;68663;49.122;17.544;2024-02-21T03:21:12;100072.13;;;23.49;47.88
79230;BME280;68663;49.122;17.544;2024-02-21T03:23:38;100078.16;;;23.51;47.86
79230;BME280;68663;49.122;17.544;2024-02-21T03:26:03;100078.16;;;23.51;47.69
79230;BME280;68663;49.122;17.544;2024-02-21T03:28:29;100076.94;;;23.52;47.70
79230;BME280;68663;49.122;17.544;2024-02-21T03:30:54;100072.53;;;23.55;47.54
79230;BME280;68663;49.122;17.544;2024-02-21T03:33:20;100075.75;;;23.57;47.69
79230;BME280;68663;49.122;17.544;2024-02-21T03:35:46;100066.06;;;23.58;47.87
79230;BME280;68663;49.122;17.544;2024-02-21T03:38:11;100070.50;;;23.59;47.54
79230;BME280;68663;49.122;17.544;2024-02-21T03:40:36;100074.13;;;23.60;47.46
79230;BME280;68663;49.122;17.544;2024-02-21T03:43:02;100072.50;;;23.59;47.27
79230;BME280;68663;49.122;17.544;2024-02-21T03:45:27;100078.97;;;23.59;47.72
79230;BME280;68663;49.122;17.544;2024-02-21T03:47:52;100074.91;;;23.60;47.43
79230;BME280;68663;49.122;17.544;2024-02-21T03:50:18;100081.38;;;23.61;47.76
79230;BME280;68663;49.122;17.544;2024-02-21T03:52:43;100082.19;;;23.61;47.41
79230;BME280;68663;49.122;17.544;2024-02-21T03:55:09;100081.75;;;23.63;47.70
79230;BME280;68663;49.122;17.544;2024-02-21T03:57:34;100079.75;;;23.63;47.47
79230;BME280;68663;49.122;17.544;2024-02-21T04:00:00;100074.09;;;23.63;47.67
79230;BME280;68663;49.122;17.544;2024-02-21T04:02:25;100057.97;;;23.64;47.29
79230;BME280;68663;49.122;17.544;2024-02-21T04:04:50;100055.56;;;23.62;47.50
79230;BME280;68663;49.122;17.544;2024-02-21T04:07:16;100055.97;;;23.57;47.46
79230;BME280;68663;49.122;17.544;2024-02-21T04:09:41;100058.00;;;23.57;47.70
79230;BME280;68663;49.122;17.544;2024-02-21T04:12:08;100045.88;;;23.52;47.38
79230;BME280;68663;49.122;17.544;2024-02-21T04:14:34;100056.38;;;23.52;47.44
79230;BME280;68663;49.122;17.544;2024-02-21T04:17:00;100055.56;;;23.51;47.81
79230;BME280;68663;49.122;17.544;2024-02-21T04:19:25;100054.78;;;23.51;47.66
79230;BME280;68663;49.122;17.544;2024-02-21T04:21:50;100055.97;;;23.50;47.76
79230;BME280;68663;49.122;17.544;2024-02-21T04:24:16;100045.91;;;23.49;47.62
79230;BME280;68663;49.122;17.544;2024-02-21T04:26:41;100052.34;;;23.49;47.66
79230;BME280;68663;49.122;17.544;2024-02-21T04:29:07;100050.72;;;23.52;47.62
79230;BME280;68663;49.122;17.544;2024-02-21T04:31:32;100050.72;;;23.52;47.63
79230;BME280;68663;49.122;17.544;2024-02-21T04:33:58;100051.56;;;23.49;47.74
79230;BME280;68663;49.122;17.544;2024-02-21T04:36:23;100052.75;;;23.48;47.54
79230;BME280;68663;49.122;17.544;2024-02-21T04:38:49;100051.16;;;23.47;47.48
79230;BME280;68663;49.122;17.544;2024-02-21T04:41:15;100050.34;;;23.46;47.48
79230;BME280;68663;49.122;17.544;2024-02-21T04:43:40;100051.16;;;23.47;47.45
79230;BME280;68663;49.122;17.544;2024-02-21T04:46:06;100043.91;;;23.46;47.61
79230;BME280;68663;49.122;17.544;2024-02-21T04:48:31;100045.91;;;23.45;47.91
79230;BME280;68663;49.122;17.544;2024-02-21T04:50:57;100044.28;;;23.48;47.82
79230;BME280;68663;49.122;17.544;2024-02-21T04:53:22;100046.31;;;23.51;47.48
79230;BME280;68663;49.122;17.544;2024-02-21T04:55:47;100047.13;;;23.48;47.61
79230;BME280;68663;49.122;17.544;2024-02-21T04:58:13;100048.34;;;23.43;47.83
79230;BME280;68663;49.122;17.544;2024-02-21T05:00:38;100037.84;;;23.40;47.62
79230;BME280;68663;49.122;17.544;2024-02-21T05:03:04;100028.59;;;23.43;47.50
79230;BME280;68663;49.122;17.544;2024-02-21T05:05:29;100024.97;;;23.43;47.50
79230;BME280;68663;49.122;17.544;2024-02-21T05:07:55;100029.41;;;23.44;47.59
79230;BME280;68663;49.122;17.544;2024-02-21T05:10:20;100024.97;;;23.43;47.69
79230;BME280;68663;49.122;17.544;2024-02-21T05:12:46;100042.28;;;23.45;47.96
79230;BME280;68663;49.122;17.544;2024-02-21T05:15:11;100033.00;;;23.48;47.75
79230;BME280;68663;49.122;17.544;2024-02-21T05:17:36;100040.25;;;23.49;47.75
79230;BME280;68663;49.122;17.544;2024-02-21T05:20:02;100035.44;;;23.46;47.46
79230;BME280;68663;49.122;17.544;2024-02-21T05:22:28;100034.63;;;23.45;47.41
79230;BME280;68663;49.122;17.544;2024-02-21T05:24:53;100032.22;;;23.44;47.80
79230;BME280;68663;49.122;17.544;2024-02-21T05:27:19;100027.78;;;23.43;47.78
79230;BME280;68663;49.122;17.544;2024-02-21T05:29:44;100030.63;;;23.43;47.58
79230;BME280;68663;49.122;17.544;2024-02-21T05:32:09;100031.81;;;23.42;47.63
79230;BME280;68663;49.122;17.544;2024-02-21T05:34:35;100029.00;;;23.42;47.81
79230;BME280;68663;49.122;17.544;2024-02-21T05:37:00;100037.06;;;23.43;47.67
79230;BME280;68663;49.122;17.544;2024-02-21T05:39:26;100035.44;;;23.46;47.77
79230;BME280;68663;49.122;17.544;2024-02-21T05:41:51;100028.56;;;23.47;47.44
79230;BME280;68663;49.122;17.544;2024-02-21T05:44:17;100032.22;;;23.47;47.50
79230;BME280;68663;49.122;17.544;2024-02-21T05:46:43;100030.19;;;23.48;47.75
79230;BME280;68663;49.122;17.544;2024-02-21T05:49:08;100024.13;;;23.49;47.65
79230;BME280;68663;49.122;17.544;2024-02-21T05:51:34;100023.31;;;23.49;47.52
79230;BME280;68663;49.122;17.544;2024-02-21T05:54:00;100020.09;;;23.50;47.67
79230;BME280;68663;49.122;17.544;2024-02-21T05:56:25;100015.25;;;23.51;47.53
79230;BME280;68663;49.122;17.544;2024-02-21T05:58:51;100022.50;;;23.52;47.52
79230;BME280;68663;49.122;17.544;2024-02-21T06:01:16;100030.56;;;23.54;47.48
79230;BME280;68663;49.122;17.544;2024-02-21T06:03:43;100024.53;;;23.55;47.28
79230;BME280;68663;49.122;17.544;2024-02-21T06:06:08;100028.16;;;23.56;47.59
79230;BME280;68663;49.122;17.544;2024-02-21T06:08:33;100030.56;;;23.57;47.49
79230;BME280;68663;49.122;17.544;2024-02-21T06:10:59;100027.38;;;23.55;47.41
79230;BME280;68663;49.122;17.544;2024-02-21T06:13:24;100028.97;;;23.49;47.29
79230;BME280;68663;49.122;17.544;2024-02-21T06:15:50;100031.41;;;23.47;47.33
79230;BME280;68663;49.122;17.544;2024-02-21T06:18:19;100037.03;;;23.47;47.20
79230;BME280;68663;49.122;17.544;2024-02-21T06:20:44;100030.19;;;23.48;47.42
79230;BME280;68663;49.122;17.544;2024-02-21T06:23:11;100029.78;;;23.49;47.48
79230;BME280;68663;49.122;17.544;2024-02-21T06:25:36;100030.19;;;23.48;47.28
79230;BME280;68663;49.122;17.544;2024-02-21T06:28:02;100023.72;;;23.51;47.60
79230;BME280;68663;49.122;17.544;2024-02-21T06:30:27;100030.97;;;23.52;47.46
79230;BME280;68663;49.122;17.544;2024-02-21T06:32:53;100023.31;;;23.49;47.49
79230;BME280;68663;49.122;17.544;2024-02-21T06:35:21;100028.16;;;23.48;48.43
79230;BME280;68663;49.122;17.544;2024-02-21T06:37:46;100023.75;;;23.47;51.07
79230;BME280;68663;49.122;17.544;2024-02-21T06:40:16;100027.38;;;23.48;51.37
79230;BME280;68663;49.122;17.544;2024-02-21T06:42:41;100035.41;;;23.49;51.26
79230;BME280;68663;49.122;17.544;2024-02-21T06:45:07;100029.78;;;23.49;51.13
79230;BME280;68663;49.122;17.544;2024-02-21T06:47:32;100032.19;;;23.51;50.83
79230;BME280;68663;49.122;17.544;2024-02-21T06:49:58;100026.94;;;23.53;50.37
79230;BME280;68663;49.122;17.544;2024-02-21T06:52:23;100034.63;;;23.56;50.34
79230;BME280;68663;49.122;17.544;2024-02-21T06:54:50;100037.84;;;23.58;50.69
79230;BME280;68663;49.122;17.544;2024-02-21T06:57:15;100032.59;;;23.57;50.34
79230;BME280;68663;49.122;17.544;2024-02-21T06:59:41;100037.00;;;23.54;50.23
79230;BME280;68663;49.122;17.544;2024-02-21T07:02:07;100032.59;;;23.53;49.79
79230;BME280;68663;49.122;17.544;2024-02-21T07:04:32;100029.38;;;23.55;49.88
79230;BME280;68663;49.122;17.544;2024-02-21T07:06:58;100029.38;;;23.55;49.89
79230;BME280;68663;49.122;17.544;2024-02-21T07:09:23;100034.59;;;23.52;49.55
79230;BME280;68663;49.122;17.544;2024-02-21T07:11:49;100036.63;;;23.52;49.53
79230;BME280;68663;49.122;17.544;2024-02-21T07:14:14;100052.34;;;23.53;49.36
79230;BME280;68663;49.122;17.544;2024-02-21T07:16:40;100055.59;;;23.55;49.11
79230;BME280;68663;49.122;17.544;2024-02-21T07:19:06;100055.97;;;23.57;49.22
79230;BME280;68663;49.122;17.544;2024-02-21T07:21:31;100053.16;;;23.57;49.05
79230;BME280;68663;49.122;17.544;2024-02-21T07:23:56;100052.34;;;23.60;49.05
79230;BME280;68663;49.122;17.544;2024-02-21T07:26:22;100047.50;;;23.61;48.80
79230;BME280;68663;49.122;17.544;2024-02-21T07:28:47;100045.47;;;23.61;48.64
79230;BME280;68663;49.122;17.544;2024-02-21T07:31:12;100039.44;;;23.63;48.68
79230;BME280;68663;49.122;17.544;2024-02-21T07:33:38;100026.13;;;23.63;48.74
79230;BME280;68663;49.122;17.544;2024-02-21T07:36:07;100026.50;;;23.65;48.50
79230;BME280;68663;49.122;17.544;2024-02-21T07:38:33;100020.84;;;23.65;48.79
79230;BME280;68663;49.122;17.544;2024-02-21T07:40:59;100022.47;;;23.63;48.44
79230;BME280;68663;49.122;17.544;2024-02-21T07:43:24;100022.47;;;23.63;48.33
79230;BME280;68663;49.122;17.544;2024-02-21T07:45:51;100022.47;;;23.63;48.26
79230;BME280;68663;49.122;17.544;2024-02-21T07:48:18;100022.47;;;23.63;48.66
79230;BME280;68663;49.122;17.544;2024-02-21T07:50:44;100017.63;;;23.63;48.35
79230;BME280;68663;49.122;17.544;2024-02-21T07:53:10;100009.19;;;23.63;48.94
79230;BME280;68663;49.122;17.544;2024-02-21T07:55:35;100009.56;;;23.65;49.00
79230;BME280;68663;49.122;17.544;2024-02-21T07:58:00;100004.69;;;23.69;48.98
79230;BME280;68663;49.122;17.544;2024-02-21T08:00:26;99999.84;;;23.73;49.51
79230;BME280;68663;49.122;17.544;2024-02-21T08:02:51;100000.63;;;23.77;49.69
79230;BME280;68663;49.122;17.544;2024-02-21T08:05:17;99999.00;;;23.76;49.50
79230;BME280;68663;49.122;17.544;2024-02-21T08:07:42;99999.84;;;23.73;49.82
79230;BME280;68663;49.122;17.544;2024-02-21T08:10:08;99996.63;;;23.71;49.95
79230;BME280;68663;49.122;17.544;2024-02-21T08:12:33;99989.38;;;23.70;49.80
79230;BME280;68663;49.122;17.544;2024-02-21T08:14:59;99990.19;;;23.71;49.63
79230;BME280;68663;49.122;17.544;2024-02-21T08:17:25;99988.97;;;23.72;49.67
79230;BME280;68663;49.122;17.544;2024-02-21T08:19:50;99978.84;;;23.74;49.84
79230;BME280;68663;49.122;17.544;2024-02-21T08:22:15;99978.41;;;23.79;50.62
79230;BME280;68663;49.122;17.544;2024-02-21T08:24:41;99987.69;;;23.83;50.75
79230;BME280;68663;49.122;17.544;2024-02-21T08:27:07;99979.19;;;23.87;50.96
79230;BME280;68663;49.122;17.544;2024-02-21T08:29:32;99979.16;;;23.91;50.60
79230;BME280;68663;49.122;17.544;2024-02-21T08:31:58;99972.28;;;23.92;50.44
79230;BME280;68663;49.122;17.544;2024-02-21T08:34:23;99981.59;;;23.89;50.63
79230;BME280;68663;49.122;17.544;2024-02-21T08:36:48;99969.91;;;23.87;50.48
79230;BME280;68663;49.122;17.544;2024-02-21T08:39:14;99971.53;;;23.84;51.14
79230;BME280;68663;49.122;17.544;2024-02-21T08:41:42;99972.34;;;23.85;51.20
79230;BME280;68663;49.122;17.544;2024-02-21T08:44:08;99959.81;;;23.86;50.68
79230;BME280;68663;49.122;17.544;2024-02-21T08:46:33;99961.81;;;23.89;50.65
79230;BME280;68663;49.122;17.544;2024-02-21T08:48:59;99964.66;;;23.89;50.73
79230;BME280;68663;49.122;17.544;2024-02-21T08:51:24;99960.59;;;23.90;50.99
79230;BME280;68663;49.122;17.544;2024-02-21T08:53:50;99957.75;;;23.93;51.34
79230;BME280;68663;49.122;17.544;2024-02-21T08:56:15;99953.69;;;23.98;51.23
79230;BME280;68663;49.122;17.544;2024-02-21T08:58:41;99957.69;;;24.00;51.17
79230;BME280;68663;49.122;17.544;2024-02-21T09:01:07;99964.53;;;24.03;51.40
79230;BME280;68663;49.122;17.544;2024-02-21T09:03:39;99956.06;;;24.03;51.59
79230;BME280;68663;49.122;17.544;2024-02-21T09:06:05;99958.47;;;24.04;51.15
79230;BME280;68663;49.122;17.544;2024-02-21T09:08:31;99951.22;;;24.03;51.60
79230;BME280;68663;49.122;17.544;2024-02-21T09:10:56;99953.25;;;24.03;52.23
79230;BME280;68663;49.122;17.544;2024-02-21T09:13:22;99953.69;;;23.98;52.07
79230;BME280;68663;49.122;17.544;2024-02-21T09:15:48;99954.09;;;23.96;51.89
79230;BME280;68663;49.122;17.544;2024-02-21T09:18:15;99951.28;;;23.96;53.04
79230;BME280;68663;49.122;17.544;2024-02-21T09:20:41;99947.25;;;23.94;53.31
79230;BME280;68663;49.122;17.544;2024-02-21T09:23:06;99946.03;;;23.95;53.52
79230;BME280;68663;49.122;17.544;2024-02-21T09:25:32;99952.06;;;23.97;52.58
79230;BME280;68663;49.122;17.544;2024-02-21T09:27:57;99955.28;;;23.99;52.47
79230;BME280;68663;49.122;17.544;2024-02-21T09:30:24;99961.31;;;24.01;52.20
79230;BME280;68663;49.122;17.544;2024-02-21T09:32:50;99956.47;;;24.01;51.91
79230;BME280;68663;49.122;17.544;2024-02-21T09:35:15;99952.81;;;24.04;51.70
79230;BME280;68663;49.122;17.544;2024-02-21T09:37:41;99955.22;;;24.06;51.26
79230;BME280;68663;49.122;17.544;2024-02-21T09:40:06;99944.72;;;24.10;51.26
79230;BME280;68663;49.122;17.544;2024-02-21T09:42:40;99943.88;;;24.13;50.87
79230;BME280;68663;49.122;17.544;2024-02-21T09:45:19;99947.09;;;24.15;50.96
79230;BME280;68663;49.122;17.544;2024-02-21T09:50:45;99938.19;;;24.17;51.27
79230;BME280;68663;49.122;17.544;2024-02-21T09:53:12;99944.72;;;24.10;51.10
79230;BME280;68663;49.122;17.544;2024-02-21T09:55:39;99940.69;;;24.07;50.97
79230;BME280;68663;49.122;17.544;2024-02-21T09:58:07;99936.69;;;24.05;50.88
79230;BME280;68663;49.122;17.544;2024-02-21T10:00:33;99933.84;;;24.05;50.92
79230;BME280;68663;49.122;17.544;2024-02-21T10:02:59;99932.63;;;24.06;51.03
79230;BME280;68663;49.122;17.544;2024-02-21T10:05:24;99929.41;;;24.04;50.41
79230;BME280;68663;49.122;17.544;2024-02-21T10:07:51;99934.25;;;24.07;50.45
79230;BME280;68663;49.122;17.544;2024-02-21T10:10:16;99935.81;;;24.11;50.86
79230;BME280;68663;49.122;17.544;2024-02-21T10:12:51;99928.47;;;24.21;52.69
79230;BME280;68663;49.122;17.544;2024-02-21T10:15:20;99921.97;;;24.31;53.49
79230;BME280;68663;49.122;17.544;2024-02-21T10:17:57;99927.56;;;24.38;53.74
79230;BME280;68663;49.122;17.544;2024-02-21T10:20:23;99907.31;;;24.43;54.03
79230;BME280;68663;49.122;17.544;2024-02-21T10:22:48;99912.13;;;24.47;55.89
79230;BME280;68663;49.122;17.544;2024-02-21T10:25:14;99906.47;;;24.47;56.09
79230;BME280;68663;49.122;17.544;2024-02-21T10:27:40;99908.91;;;24.44;55.90
79230;BME280;68663;49.122;17.544;2024-02-21T10:30:07;99907.28;;;24.47;58.36
79230;BME280;68663;49.122;17.544;2024-02-21T10:32:48;99914.53;;;24.48;58.38
79230;BME280;68663;49.122;17.544;2024-02-21T10:35:14;99906.84;;;24.49;58.02
79230;BME280;68663;49.122;17.544;2024-02-21T10:37:39;99914.53;;;24.48;57.39
79230;BME280;68663;49.122;17.544;2024-02-21T10:40:05;99911.72;;;24.48;58.71
79230;BME280;68663;49.122;17.544;2024-02-21T10:42:31;99909.72;;;24.45;58.44
79230;BME280;68663;49.122;17.544;2024-02-21T10:45:01;99910.56;;;24.42;54.59
79230;BME280;68663;49.122;17.544;2024-02-21T10:47:31;99914.66;;;24.37;52.70
79230;BME280;68663;49.122;17.544;2024-02-21T10:50:03;99891.28;;;24.33;52.08
79230;BME280;68663;49.122;17.544;2024-02-21T10:52:43;99908.22;;;24.33;52.06
79230;BME280;68663;49.122;17.544;2024-02-21T10:55:27;99896.50;;;24.35;51.53
79230;BME280;68663;49.122;17.544;2024-02-21T10:57:55;99905.78;;;24.35;51.96
79230;BME280;68663;49.122;17.544;2024-02-21T11:00:22;99902.13;;;24.38;52.08
79230;BME280;68663;49.122;17.544;2024-02-21T11:02:52;99894.03;;;24.40;54.27
79230;BME280;68663;49.122;17.544;2024-02-21T11:05:18;99876.25;;;24.40;51.61
79230;BME280;68663;49.122;17.544;2024-02-21T11:10:26;99866.22;;;24.35;51.45
79230;BME280;68663;49.122;17.544;2024-02-21T11:13:08;99887.22;;;24.34;52.33
79230;BME280;68663;49.122;17.544;2024-02-21T11:15:33;99877.94;;;24.34;53.44
79230;BME280;68663;49.122;17.544;2024-02-21T11:17:59;99873.50;;;24.33;53.12
79230;BME280;68663;49.122;17.544;2024-02-21T11:20:34;99868.66;;;24.33;53.38
79230;BME280;68663;49.122;17.544;2024-02-21T11:23:00;99874.69;;;24.35;52.76
79230;BME280;68663;49.122;17.544;2024-02-21T11:25:27;99866.59;;;24.37;52.55
79230;BME280;68663;49.122;17.544;2024-02-21T11:28:04;99868.59;;;24.40;52.36
79230;BME280;68663;49.122;17.544;2024-02-21T11:30:33;99862.94;;;24.40;52.48
79230;BME280;68663;49.122;17.544;2024-02-21T11:33:03;99861.75;;;24.38;52.77
79230;BME280;68663;49.122;17.544;2024-02-21T11:35:33;99867.03;;;24.36;52.70
79230;BME280;68663;49.122;17.544;2024-02-21T11:38:09;99861.41;;;24.32;53.03
79230;BME280;68663;49.122;17.544;2024-02-21T11:40:38;99856.16;;;24.31;52.40
79230;BME280;68663;49.122;17.544;2024-02-21T11:43:05;99855.00;;;24.28;52.34
79230;BME280;68663;49.122;17.544;2024-02-21T11:45:30;99842.47;;;24.29;52.17
79230;BME280;68663;49.122;17.544;2024-02-21T11:47:57;99838.84;;;24.29;52.27
79230;BME280;68663;49.122;17.544;2024-02-21T11:50:26;99829.94;;;24.30;51.98
79230;BME280;68663;49.122;17.544;2024-02-21T11:52:54;99820.25;;;24.31;51.65
79230;BME280;68663;49.122;17.544;2024-02-21T11:55:19;99810.53;;;24.32;51.60
79230;BME280;68663;49.122;17.544;2024-02-21T11:57:47;99813.78;;;24.31;51.91
79230;BME280;68663;49.122;17.544;2024-02-21T12:00:17;99808.97;;;24.28;51.71
79230;BME280;68663;49.122;17.544;2024-02-21T12:02:43;99803.69;;;24.26;51.72
79230;BME280;68663;49.122;17.544;2024-02-21T12:05:10;99803.31;;;24.24;51.29
79230;BME280;68663;49.122;17.544;2024-02-21T12:07:36;99798.88;;;24.23;51.06
79230;BME280;68663;49.122;17.544;2024-02-21T12:10:10;99794.81;;;24.24;51.06
79230;BME280;68663;49.122;17.544;2024-02-21T12:12:38;99797.66;;;24.24;50.51
79230;BME280;68663;49.122;17.544;2024-02-21T12:15:05;99780.69;;;24.24;50.48
79230;BME280;68663;49.122;17.544;2024-02-21T12:17:34;99792.00;;;24.24;49.90
79230;BME280;68663;49.122;17.544;2024-02-21T12:20:01;99783.94;;;24.23;49.87
79230;BME280;68663;49.122;17.544;2024-02-21T12:22:29;99773.50;;;24.20;49.67
79230;BME280;68663;49.122;17.544;2024-02-21T12:24:57;99778.72;;;24.21;49.60
79230;BME280;68663;49.122;17.544;2024-02-21T12:27:23;99768.63;;;24.20;49.40
79230;BME280;68663;49.122;17.544;2024-02-21T12:29:49;99778.28;;;24.23;49.60
79230;BME280;68663;49.122;17.544;2024-02-21T12:32:14;99780.31;;;24.22;49.53
79230;BME280;68663;49.122;17.544;2024-02-21T12:34:39;99780.75;;;24.21;49.96
79230;BME280;68663;49.122;17.544;2024-02-21T12:37:05;99772.69;;;24.19;49.75
79230;BME280;68663;49.122;17.544;2024-02-21T12:39:30;99776.81;;;24.11;49.95
79230;BME280;68663;49.122;17.544;2024-02-21T12:41:57;99765.16;;;24.05;49.95
79230;BME280;68663;49.122;17.544;2024-02-21T12:44:22;99768.38;;;24.07;50.07
79230;BME280;68663;49.122;17.544;2024-02-21T12:46:47;99770.41;;;24.07;49.96